Terminal Aerodrome Forecast
Issued by NWS Nashville, TN

Home | Current Version | Previous Version | Text Only | Print | Product List | Glossary On
Versions: 1 2 3 4 5 6 7 8 9 10 11 12 13 14 15 16 17
000
FTUS44 KOHX 012300 RRA
TAFBNA
TAF
KBNA 012340Z 0200/0224 20003KT 1 1/2SM -DZ BR OVC010
      TEMPO 0200/0202 1SM -DZ BR OVC007
     FM020200 35006KT 3SM -DZ BR OVC007
     FM021200 03009KT 4SM -DZ BR OVC007
     FM021700 04009KT P6SM BKN025
     FM022200 04006KT P6SM OVC050=

USA.gov is the U.S. government's official web portal to all federal, state and local government web resources and services.